sensor_id;sensor_type;location;lat;lon;timestamp;pressure;altitude;pressure_sealevel;temperature;humidity
10638;BME280;47007;49.252;8.904;2023-02-13T00:00:11;101837.56;;;3.09;100.00
10638;BME280;47007;49.252;8.904;2023-02-13T00:00:55;101836.53;;;3.11;100.00
10638;BME280;47007;49.252;8.904;2023-02-13T00:01:38;101832.13;;;3.12;100.00
10638;BME280;47007;49.252;8.904;2023-02-13T00:02:40;101819.50;;;3.04;100.00
10638;BME280;47007;49.252;8.904;2023-02-13T00:03:26;101826.91;;;3.12;100.00
10638;BME280;47007;49.252;8.904;2023-02-13T00:04:11;101826.91;;;3.12;100.00
10638;BME280;47007;49.252;8.904;2023-02-13T00:05:00;101831.28;;;3.11;100.00
10638;BME280;47007;49.252;8.904;2023-02-13T00:05:48;101815.34;;;3.00;100.00
10638;BME280;47007;49.252;8.904;2023-02-13T00:06:30;101824.56;;;3.07;100.00
10638;BME280;47007;49.252;8.904;2023-02-13T00:07:19;101830.38;;;3.12;100.00
10638;BME280;47007;49.252;8.904;2023-02-13T00:08:06;101811.03;;;2.99;100.00
10638;BME280;47007;49.252;8.904;2023-02-13T00:08:59;101833.00;;;3.12;100.00
10638;BME280;47007;49.252;8.904;2023-02-13T00:09:55;101801.47;;;2.98;100.00
10638;BME280;47007;49.252;8.904;2023-02-13T00:10:37;101820.06;;;3.09;100.00
10638;BME280;47007;49.252;8.904;2023-02-13T00:11:27;101831.91;;;3.16;100.00
10638;BME280;47007;49.252;8.904;2023-02-13T00:12:24;101826.56;;;3.18;100.00
10638;BME280;47007;49.252;8.904;2023-02-13T00:13:09;101822.25;;;3.17;100.00
10638;BME280;47007;49.252;8.904;2023-02-13T00:13:57;101811.53;;;3.06;100.00
10638;BME280;47007;49.252;8.904;2023-02-13T00:14:39;101808.25;;;3.02;100.00
10638;BME280;47007;49.252;8.904;2023-02-13T00:15:32;101823.94;;;3.18;100.00
10638;BME280;47007;49.252;8.904;2023-02-13T00:16:17;101828.34;;;3.17;100.00
10638;BME280;47007;49.252;8.904;2023-02-13T00:17:00;101809.78;;;3.06;100.00
10638;BME280;47007;49.252;8.904;2023-02-13T00:17:44;101793.63;;;2.98;100.00
10638;BME280;47007;49.252;8.904;2023-02-13T00:18:41;101832.13;;;3.12;100.00
10638;BME280;47007;49.252;8.904;2023-02-13T00:19:39;101819.31;;;3.07;100.00
10638;BME280;47007;49.252;8.904;2023-02-13T00:20:24;101827.34;;;3.04;100.00
10638;BME280;47007;49.252;8.904;2023-02-13T00:21:08;101829.19;;;3.02;100.00
10638;BME280;47007;49.252;8.904;2023-02-13T00:21:55;101819.81;;;2.98;100.00
10638;BME280;47007;49.252;8.904;2023-02-13T00:22:43;101826.09;;;2.96;100.00
10638;BME280;47007;49.252;8.904;2023-02-13T00:23:33;101807.59;;;2.83;100.00
10638;BME280;47007;49.252;8.904;2023-02-13T00:24:21;101752.03;;;2.46;100.00
10638;BME280;47007;49.252;8.904;2023-02-13T00:25:06;101792.97;;;2.79;100.00
10638;BME280;47007;49.252;8.904;2023-02-13T00:25:48;101823.72;;;2.91;100.00
10638;BME280;47007;49.252;8.904;2023-02-13T00:26:50;101826.34;;;2.91;100.00
10638;BME280;47007;49.252;8.904;2023-02-13T00:27:38;101824.66;;;2.90;100.00
10638;BME280;47007;49.252;8.904;2023-02-13T00:28:26;101807.84;;;2.78;100.00
10638;BME280;47007;49.252;8.904;2023-02-13T00:29:08;101829.13;;;2.88;100.00
10638;BME280;47007;49.252;8.904;2023-02-13T00:29:57;101807.91;;;2.77;100.00
10638;BME280;47007;49.252;8.904;2023-02-13T00:30:45;101814.84;;;2.78;100.00
10638;BME280;47007;49.252;8.904;2023-02-13T00:31:33;101791.28;;;2.62;100.00
10638;BME280;47007;49.252;8.904;2023-02-13T00:32:17;101824.22;;;2.82;100.00
10638;BME280;47007;49.252;8.904;2023-02-13T00:33:09;101817.63;;;2.75;100.00
10638;BME280;47007;49.252;8.904;2023-02-13T00:33:53;101825.16;;;2.81;100.00
10638;BME280;47007;49.252;8.904;2023-02-13T00:34:38;101803.34;;;2.65;100.00
10638;BME280;47007;49.252;8.904;2023-02-13T00:35:22;101826.84;;;2.82;100.00
10638;BME280;47007;49.252;8.904;2023-02-13T00:36:20;101826.84;;;2.82;100.00
10638;BME280;47007;49.252;8.904;2023-02-13T00:37:05;101829.47;;;2.82;100.00
10638;BME280;47007;49.252;8.904;2023-02-13T00:37:48;101824.22;;;2.82;100.00
10638;BME280;47007;49.252;8.904;2023-02-13T00:38:47;101831.25;;;2.81;100.00
10638;BME280;47007;49.252;8.904;2023-02-13T00:39:33;101798.28;;;2.62;100.00
10638;BME280;47007;49.252;8.904;2023-02-13T00:40:18;101823.56;;;2.78;100.00
10638;BME280;47007;49.252;8.904;2023-02-13T00:41:03;101828.72;;;2.80;100.00
10638;BME280;47007;49.252;8.904;2023-02-13T00:41:55;101826.09;;;2.80;100.00
10638;BME280;47007;49.252;8.904;2023-02-13T00:42:44;101810.88;;;2.71;100.00
10638;BME280;47007;49.252;8.904;2023-02-13T00:43:26;101831.31;;;2.80;100.00
10638;BME280;47007;49.252;8.904;2023-02-13T00:44:10;101827.84;;;2.79;100.00
10638;BME280;47007;49.252;8.904;2023-02-13T00:45:03;101805.22;;;2.63;100.00
10638;BME280;47007;49.252;8.904;2023-02-13T00:45:55;101834.88;;;2.79;100.00
10638;BME280;47007;49.252;8.904;2023-02-13T00:46:54;101828.78;;;2.78;100.00
10638;BME280;47007;49.252;8.904;2023-02-13T00:47:39;101829.63;;;2.79;100.00
10638;BME280;47007;49.252;8.904;2023-02-13T00:48:30;101834.88;;;2.79;100.00
10638;BME280;47007;49.252;8.904;2023-02-13T00:49:21;101823.88;;;2.72;100.00
10638;BME280;47007;49.252;8.904;2023-02-13T00:50:03;101833.19;;;2.78;100.00
10638;BME280;47007;49.252;8.904;2023-02-13T00:50:46;101832.34;;;2.77;100.00
10638;BME280;47007;49.252;8.904;2023-02-13T00:51:52;101830.56;;;2.78;100.00
10638;BME280;47007;49.252;8.904;2023-02-13T00:52:36;101832.34;;;2.77;100.00
10638;BME280;47007;49.252;8.904;2023-02-13T00:53:30;101834.34;;;2.72;100.00
10638;BME280;47007;49.252;8.904;2023-02-13T00:54:15;101838.41;;;2.78;100.00
10638;BME280;47007;49.252;8.904;2023-02-13T00:55:04;101820.50;;;2.70;100.00
10638;BME280;47007;49.252;8.904;2023-02-13T00:55:50;101835.63;;;2.81;100.00
10638;BME280;47007;49.252;8.904;2023-02-13T00:56:35;101834.72;;;2.82;100.00
10638;BME280;47007;49.252;8.904;2023-02-13T00:57:29;101831.16;;;2.83;100.00
10638;BME280;47007;49.252;8.904;2023-02-13T00:58:34;101834.50;;;2.85;100.00
10638;BME280;47007;49.252;8.904;2023-02-13T00:59:15;101825.31;;;2.78;100.00
10638;BME280;47007;49.252;8.904;2023-02-13T01:00:12;101832.66;;;2.87;100.00
10638;BME280;47007;49.252;8.904;2023-02-13T01:00:59;101797.97;;;2.68;100.00
10638;BME280;47007;49.252;8.904;2023-02-13T01:01:57;101841.13;;;2.92;100.00
10638;BME280;47007;49.252;8.904;2023-02-13T01:02:42;101836.03;;;2.89;100.00
10638;BME280;47007;49.252;8.904;2023-02-13T01:03:27;101826.78;;;2.83;100.00
10638;BME280;47007;49.252;8.904;2023-02-13T01:04:11;101840.13;;;2.95;100.00
10638;BME280;47007;49.252;8.904;2023-02-13T01:05:10;101807.91;;;2.77;100.00
10638;BME280;47007;49.252;8.904;2023-02-13T01:05:52;101818.81;;;2.85;100.00
10638;BME280;47007;49.252;8.904;2023-02-13T01:06:57;101845.06;;;2.99;100.00
10638;BME280;47007;49.252;8.904;2023-02-13T01:07:59;101845.75;;;3.03;100.00
10638;BME280;47007;49.252;8.904;2023-02-13T01:08:44;101808.25;;;2.86;100.00
10638;BME280;47007;49.252;8.904;2023-02-13T01:09:49;101845.44;;;3.09;100.00
10638;BME280;47007;49.252;8.904;2023-02-13T01:10:48;101846.16;;;3.11;100.00
10638;BME280;47007;49.252;8.904;2023-02-13T01:11:41;101832.50;;;3.06;100.00
10638;BME280;47007;49.252;8.904;2023-02-13T01:12:26;101824.41;;;2.95;100.00
10638;BME280;47007;49.252;8.904;2023-02-13T01:13:16;101846.84;;;3.14;100.00
10638;BME280;47007;49.252;8.904;2023-02-13T01:14:07;101833.16;;;3.09;100.00
10638;BME280;47007;49.252;8.904;2023-02-13T01:14:50;101841.97;;;3.08;100.00
10638;BME280;47007;49.252;8.904;2023-02-13T01:15:35;101827.91;;;3.09;100.00
10638;BME280;47007;49.252;8.904;2023-02-13T01:16:29;101839.00;;;3.14;100.00
10638;BME280;47007;49.252;8.904;2023-02-13T01:17:24;101846.53;;;3.20;100.00
10638;BME280;47007;49.252;8.904;2023-02-13T01:18:11;101851.66;;;3.22;100.00
10638;BME280;47007;49.252;8.904;2023-02-13T01:18:53;101844.63;;;3.22;100.00
10638;BME280;47007;49.252;8.904;2023-02-13T01:19:39;101851.56;;;3.23;100.00
10638;BME280;47007;49.252;8.904;2023-02-13T01:20:29;101835.44;;;3.15;100.00
10638;BME280;47007;49.252;8.904;2023-02-13T01:21:20;101851.56;;;3.23;100.00
10638;BME280;47007;49.252;8.904;2023-02-13T01:22:12;101837.13;;;3.16;100.00
10638;BME280;47007;49.252;8.904;2023-02-13T01:22:57;101840.31;;;3.21;100.00
10638;BME280;47007;49.252;8.904;2023-02-13T01:23:42;101830.13;;;3.17;100.00
10638;BME280;47007;49.252;8.904;2023-02-13T01:24:31;101841.69;;;3.29;100.00
10638;BME280;47007;49.252;8.904;2023-02-13T01:25:14;101844.31;;;3.29;100.00
10638;BME280;47007;49.252;8.904;2023-02-13T01:26:06;101837.69;;;3.21;100.00
10638;BME280;47007;49.252;8.904;2023-02-13T01:26:52;101806.31;;;3.06;100.00
10638;BME280;47007;49.252;8.904;2023-02-13T01:27:46;101826.66;;;3.16;100.00
10638;BME280;47007;49.252;8.904;2023-02-13T01:28:34;101808.47;;;3.13;100.00
10638;BME280;47007;49.252;8.904;2023-02-13T01:29:21;101810.94;;;3.16;100.00
10638;BME280;47007;49.252;8.904;2023-02-13T01:30:09;101829.25;;;3.32;100.00
10638;BME280;47007;49.252;8.904;2023-02-13T01:30:56;101807.47;;;3.16;100.00
10638;BME280;47007;49.252;8.904;2023-02-13T01:31:44;101821.81;;;3.24;100.00
10638;BME280;47007;49.252;8.904;2023-02-13T01:32:26;101823.50;;;3.25;100.00
10638;BME280;47007;49.252;8.904;2023-02-13T01:33:13;101823.25;;;3.30;100.00
10638;BME280;47007;49.252;8.904;2023-02-13T01:33:59;101829.19;;;3.34;100.00
10638;BME280;47007;49.252;8.904;2023-02-13T01:34:44;101829.06;;;3.35;100.00
10638;BME280;47007;49.252;8.904;2023-02-13T01:35:38;101828.22;;;3.35;100.00
10638;BME280;47007;49.252;8.904;2023-02-13T01:36:28;101831.59;;;3.37;100.00
10638;BME280;47007;49.252;8.904;2023-02-13T01:37:13;101828.13;;;3.36;100.00
10638;BME280;47007;49.252;8.904;2023-02-13T01:37:55;101827.28;;;3.36;100.00
10638;BME280;47007;49.252;8.904;2023-02-13T01:38:40;101830.75;;;3.36;100.00
10638;BME280;47007;49.252;8.904;2023-02-13T01:39:24;101830.75;;;3.36;100.00
10638;BME280;47007;49.252;8.904;2023-02-13T01:40:12;101811.25;;;3.26;100.00
10638;BME280;47007;49.252;8.904;2023-02-13T01:40:57;101826.56;;;3.34;100.00
10638;BME280;47007;49.252;8.904;2023-02-13T01:41:41;101820.56;;;3.32;100.00
10638;BME280;47007;49.252;8.904;2023-02-13T01:42:36;101824.03;;;3.32;100.00
10638;BME280;47007;49.252;8.904;2023-02-13T01:43:23;101825.88;;;3.30;100.00
10638;BME280;47007;49.252;8.904;2023-02-13T01:45:32;101821.66;;;3.28;100.00
10638;BME280;47007;49.252;8.904;2023-02-13T01:46:41;101827.81;;;3.27;100.00
10638;BME280;47007;49.252;8.904;2023-02-13T01:47:30;101771.16;;;2.94;100.00
10638;BME280;47007;49.252;8.904;2023-02-13T01:48:25;101817.09;;;3.15;100.00
10638;BME280;47007;49.252;8.904;2023-02-13T01:49:22;101821.16;;;3.21;100.00
10638;BME280;47007;49.252;8.904;2023-02-13T01:50:15;101819.47;;;3.20;100.00
10638;BME280;47007;49.252;8.904;2023-02-13T01:51:06;101803.59;;;3.07;100.00
10638;BME280;47007;49.252;8.904;2023-02-13T01:51:57;101821.41;;;3.16;100.00
10638;BME280;47007;49.252;8.904;2023-02-13T01:52:49;101824.13;;;3.15;100.00
10638;BME280;47007;49.252;8.904;2023-02-13T01:53:58;101818.03;;;3.14;100.00
10638;BME280;47007;49.252;8.904;2023-02-13T01:54:55;101819.97;;;3.11;100.00
10638;BME280;47007;49.252;8.904;2023-02-13T01:55:46;101803.69;;;3.06;100.00
10638;BME280;47007;49.252;8.904;2023-02-13T01:56:41;101813.72;;;3.13;100.00
10638;BME280;47007;49.252;8.904;2023-02-13T01:58:53;101810.94;;;3.16;100.00
10638;BME280;47007;49.252;8.904;2023-02-13T02:00:06;101809.84;;;3.20;100.00
10638;BME280;47007;49.252;8.904;2023-02-13T02:01:02;101803.06;;;3.16;100.00
10638;BME280;47007;49.252;8.904;2023-02-13T02:01:49;101787.53;;;3.13;100.00
10638;BME280;47007;49.252;8.904;2023-02-13T02:02:51;101806.94;;;3.25;100.00
10638;BME280;47007;49.252;8.904;2023-02-13T02:03:44;101806.94;;;3.25;100.00
10638;BME280;47007;49.252;8.904;2023-02-13T02:04:39;101805.00;;;3.29;100.00
10638;BME280;47007;49.252;8.904;2023-02-13T02:05:29;101815.31;;;3.32;100.00
10638;BME280;47007;49.252;8.904;2023-02-13T02:06:22;101804.75;;;3.33;100.00
10638;BME280;47007;49.252;8.904;2023-02-13T02:07:29;101802.13;;;3.33;100.00
10638;BME280;47007;49.252;8.904;2023-02-13T02:08:39;101807.44;;;3.32;100.00
10638;BME280;47007;49.252;8.904;2023-02-13T02:09:44;101805.75;;;3.31;100.00
10638;BME280;47007;49.252;8.904;2023-02-13T02:10:30;101799.91;;;3.25;100.00
10638;BME280;47007;49.252;8.904;2023-02-13T02:11:21;101805.00;;;3.29;100.00
10638;BME280;47007;49.252;8.904;2023-02-13T02:12:16;101771.41;;;3.05;100.00
10638;BME280;47007;49.252;8.904;2023-02-13T02:13:14;101780.50;;;3.14;100.00
10638;BME280;47007;49.252;8.904;2023-02-13T02:14:00;101792.44;;;3.19;100.00
10638;BME280;47007;49.252;8.904;2023-02-13T02:14:50;101787.53;;;3.13;100.00
10638;BME280;47007;49.252;8.904;2023-02-13T02:15:46;101811.34;;;3.24;100.00
10638;BME280;47007;49.252;8.904;2023-02-13T02:16:34;101810.84;;;3.18;100.00
10638;BME280;47007;49.252;8.904;2023-02-13T02:17:19;101794.81;;;3.08;100.00
10638;BME280;47007;49.252;8.904;2023-02-13T02:18:28;101808.41;;;3.15;100.00
10638;BME280;47007;49.252;8.904;2023-02-13T02:19:37;101813.03;;;3.10;100.00
10638;BME280;47007;49.252;8.904;2023-02-13T02:21:48;101809.00;;;3.04;100.00
10638;BME280;47007;49.252;8.904;2023-02-13T02:24:16;101806.84;;;2.97;100.00
10638;BME280;47007;49.252;8.904;2023-02-13T02:26:48;101806.66;;;2.84;100.00
10638;BME280;47007;49.252;8.904;2023-02-13T02:28:01;101811.13;;;2.82;100.00
10638;BME280;47007;49.252;8.904;2023-02-13T02:30:35;101809.84;;;2.73;100.00
10638;BME280;47007;49.252;8.904;2023-02-13T02:32:55;101807.59;;;2.67;100.00
10638;BME280;47007;49.252;8.904;2023-02-13T02:39:13;101805.72;;;2.53;100.00
10638;BME280;47007;49.252;8.904;2023-02-13T02:40:27;101798.03;;;2.50;100.00
10638;BME280;47007;49.252;8.904;2023-02-13T02:43:54;101796.69;;;2.43;100.00
10638;BME280;47007;49.252;8.904;2023-02-13T02:44:46;101794.97;;;2.42;100.00
10638;BME280;47007;49.252;8.904;2023-02-13T02:49:49;101793.59;;;2.35;100.00
10638;BME280;47007;49.252;8.904;2023-02-13T02:54:50;101769.25;;;2.02;100.00
10638;BME280;47007;49.252;8.904;2023-02-13T02:56:26;101780.91;;;2.12;100.00
10638;BME280;47007;49.252;8.904;2023-02-13T02:57:27;101799.06;;;2.15;100.00
10638;BME280;47007;49.252;8.904;2023-02-13T02:59:50;101773.13;;;1.95;100.00
10638;BME280;47007;49.252;8.904;2023-02-13T03:01:21;101798.63;;;2.07;100.00
10638;BME280;47007;49.252;8.904;2023-02-13T03:02:24;101792.72;;;2.03;100.00
10638;BME280;47007;49.252;8.904;2023-02-13T03:03:35;101791.88;;;2.03;100.00
10638;BME280;47007;49.252;8.904;2023-02-13T03:04:47;101763.97;;;1.86;100.00
10638;BME280;47007;49.252;8.904;2023-02-13T03:05:50;101773.34;;;1.90;100.00
10638;BME280;47007;49.252;8.904;2023-02-13T03:07:03;101755.19;;;1.71;100.00
10638;BME280;47007;49.252;8.904;2023-02-13T03:07:56;101775.59;;;1.80;100.00
10638;BME280;47007;49.252;8.904;2023-02-13T03:08:43;101783.88;;;1.89;100.00
10638;BME280;47007;49.252;8.904;2023-02-13T03:09:56;101787.34;;;1.89;100.00
10638;BME280;47007;49.252;8.904;2023-02-13T03:10:57;101787.75;;;1.82;100.00
10638;BME280;47007;49.252;8.904;2023-02-13T03:12:03;101787.13;;;1.76;100.00
10638;BME280;47007;49.252;8.904;2023-02-13T03:13:15;101793.00;;;1.82;100.00
10638;BME280;47007;49.252;8.904;2023-02-13T03:14:06;101777.78;;;1.72;100.00
10638;BME280;47007;49.252;8.904;2023-02-13T03:14:59;101763.66;;;1.59;100.00
10638;BME280;47007;49.252;8.904;2023-02-13T03:15:49;101789.75;;;1.76;100.00
10638;BME280;47007;49.252;8.904;2023-02-13T03:17:10;101790.66;;;1.75;100.00
10638;BME280;47007;49.252;8.904;2023-02-13T03:18:11;101794.22;;;1.74;100.00
10638;BME280;47007;49.252;8.904;2023-02-13T03:19:30;101792.44;;;1.75;100.00
10638;BME280;47007;49.252;8.904;2023-02-13T03:23:06;101788.91;;;1.76;100.00
10638;BME280;47007;49.252;8.904;2023-02-13T03:24:16;101795.97;;;1.74;100.00
10638;BME280;47007;49.252;8.904;2023-02-13T03:28:57;101800.75;;;1.49;100.00
10638;BME280;47007;49.252;8.904;2023-02-13T03:31:37;101775.31;;;1.18;100.00
10638;BME280;47007;49.252;8.904;2023-02-13T03:34:23;101798.44;;;1.25;100.00
10638;BME280;47007;49.252;8.904;2023-02-13T03:35:52;101791.13;;;1.15;100.00
10638;BME280;47007;49.252;8.904;2023-02-13T03:37:02;101792.69;;;1.19;100.00
10638;BME280;47007;49.252;8.904;2023-02-13T03:38:41;101804.22;;;1.32;100.00
10638;BME280;47007;49.252;8.904;2023-02-13T03:39:59;101814.53;;;1.35;100.00
10638;BME280;47007;49.252;8.904;2023-02-13T03:41:13;101784.00;;;1.18;100.00
10638;BME280;47007;49.252;8.904;2023-02-13T03:43:09;101818.81;;;1.36;100.00
10638;BME280;47007;49.252;8.904;2023-02-13T03:45:02;101814.66;;;1.32;100.00
10638;BME280;47007;49.252;8.904;2023-02-13T03:46:17;101807.59;;;1.34;100.00
10638;BME280;47007;49.252;8.904;2023-02-13T03:47:04;101779.16;;;1.11;100.00
10638;BME280;47007;49.252;8.904;2023-02-13T03:47:49;101818.97;;;1.33;100.00
10638;BME280;47007;49.252;8.904;2023-02-13T03:48:39;101813.88;;;1.30;100.00
10638;BME280;47007;49.252;8.904;2023-02-13T03:49:50;101807.28;;;1.23;100.00
10638;BME280;47007;49.252;8.904;2023-02-13T03:50:50;101819.25;;;1.27;100.00
10638;BME280;47007;49.252;8.904;2023-02-13T03:52:00;101822.78;;;1.26;100.00
10638;BME280;47007;49.252;8.904;2023-02-13T03:53:00;101805.72;;;1.19;100.00
10638;BME280;47007;49.252;8.904;2023-02-13T03:54:01;101812.78;;;1.17;100.00
10638;BME280;47007;49.252;8.904;2023-02-13T03:54:53;101793.34;;;1.05;100.00
10638;BME280;47007;49.252;8.904;2023-02-13T03:56:05;101816.78;;;1.24;100.00
10638;BME280;47007;49.252;8.904;2023-02-13T03:57:29;101801.03;;;1.08;100.00
10638;BME280;47007;49.252;8.904;2023-02-13T03:58:42;101810.25;;;1.15;100.00
10638;BME280;47007;49.252;8.904;2023-02-13T03:59:49;101818.72;;;1.20;100.00
10638;BME280;47007;49.252;8.904;2023-02-13T04:00:43;101820.50;;;1.20;100.00
10638;BME280;47007;49.252;8.904;2023-02-13T04:01:31;101801.03;;;1.08;100.00
10638;BME280;47007;49.252;8.904;2023-02-13T04:02:33;101826.56;;;1.20;100.00
10638;BME280;47007;49.252;8.904;2023-02-13T04:03:27;101819.66;;;1.19;100.00
10638;BME280;47007;49.252;8.904;2023-02-13T04:04:54;101823.16;;;1.18;100.00
10638;BME280;47007;49.252;8.904;2023-02-13T04:05:51;101825.84;;;1.17;100.00
10638;BME280;47007;49.252;8.904;2023-02-13T04:07:38;101825.22;;;1.12;100.00
10638;BME280;47007;49.252;8.904;2023-02-13T04:08:34;101800.97;;;0.91;100.00
10638;BME280;47007;49.252;8.904;2023-02-13T04:09:17;101815.47;;;0.98;100.00
10638;BME280;47007;49.252;8.904;2023-02-13T04:10:09;101825.53;;;1.05;100.00
10638;BME280;47007;49.252;8.904;2023-02-13T04:11:02;101829.84;;;1.06;100.00
10638;BME280;47007;49.252;8.904;2023-02-13T04:13:02;101823.13;;;1.01;100.00
10638;BME280;47007;49.252;8.904;2023-02-13T04:13:59;101824.03;;;1.00;100.00
10638;BME280;47007;49.252;8.904;2023-02-13T04:15:49;101800.66;;;0.80;100.00
10638;BME280;47007;49.252;8.904;2023-02-13T04:16:51;101814.19;;;0.88;100.00
10638;BME280;47007;49.252;8.904;2023-02-13T04:18:31;101816.66;;;0.91;100.00
10638;BME280;47007;49.252;8.904;2023-02-13T04:18:53;101830.28;;;0.97;100.00
10638;BME280;47007;49.252;8.904;2023-02-13T04:19:50;101823.44;;;0.95;100.00
10638;BME280;47007;49.252;8.904;2023-02-13T04:20:40;101827.72;;;0.96;100.00
10638;BME280;47007;49.252;8.904;2023-02-13T04:21:32;101831.88;;;1.00;100.00
10638;BME280;47007;49.252;8.904;2023-02-13T04:22:21;101820.97;;;0.92;100.00
10638;BME280;47007;49.252;8.904;2023-02-13T04:23:07;101834.47;;;1.00;100.00
10638;BME280;47007;49.252;8.904;2023-02-13T04:23:50;101783.59;;;0.73;100.00
10638;BME280;47007;49.252;8.904;2023-02-13T04:24:34;101826.81;;;0.97;100.00
10638;BME280;47007;49.252;8.904;2023-02-13T04:25:19;101827.22;;;1.06;100.00
10638;BME280;47007;49.252;8.904;2023-02-13T04:26:18;101813.97;;;0.92;100.00
10638;BME280;47007;49.252;8.904;2023-02-13T04:27:15;101835.91;;;1.07;100.00
10638;BME280;47007;49.252;8.904;2023-02-13T04:28:04;101823.91;;;1.03;100.00
10638;BME280;47007;49.252;8.904;2023-02-13T04:28:46;101829.06;;;1.04;100.00
10638;BME280;47007;49.252;8.904;2023-02-13T04:29:31;101834.06;;;1.09;100.00
10638;BME280;47007;49.252;8.904;2023-02-13T04:30:13;101838.28;;;1.12;100.00
10638;BME280;47007;49.252;8.904;2023-02-13T04:31:04;101835.66;;;1.12;100.00
10638;BME280;47007;49.252;8.904;2023-02-13T04:31:50;101816.44;;;0.95;100.00
10638;BME280;47007;49.252;8.904;2023-02-13T04:32:35;101823.19;;;0.99;100.00
10638;BME280;47007;49.252;8.904;2023-02-13T04:33:24;101812.91;;;0.96;100.00
10638;BME280;47007;49.252;8.904;2023-02-13T04:34:06;101818.75;;;1.01;100.00
10638;BME280;47007;49.252;8.904;2023-02-13T04:34:55;101837.47;;;1.11;100.00
10638;BME280;47007;49.252;8.904;2023-02-13T04:35:42;101832.91;;;1.15;100.00
10638;BME280;47007;49.252;8.904;2023-02-13T04:36:53;101794.84;;;0.92;100.00
10638;BME280;47007;49.252;8.904;2023-02-13T04:37:36;101835.38;;;1.18;100.00
10638;BME280;47007;49.252;8.904;2023-02-13T04:38:23;101818.47;;;1.07;100.00
10638;BME280;47007;49.252;8.904;2023-02-13T04:39:08;101822.59;;;1.12;100.00
10638;BME280;47007;49.252;8.904;2023-02-13T04:39:57;101802.09;;;1.04;100.00
10638;BME280;47007;49.252;8.904;2023-02-13T04:40:39;101828.09;;;1.24;100.00
10638;BME280;47007;49.252;8.904;2023-02-13T04:41:23;101833.16;;;1.27;100.00
10638;BME280;47007;49.252;8.904;2023-02-13T04:42:13;101793.28;;;1.06;100.00
10638;BME280;47007;49.252;8.904;2023-02-13T04:43:03;101809.97;;;1.21;100.00
10638;BME280;47007;49.252;8.904;2023-02-13T04:43:56;101834.78;;;1.30;100.00
10638;BME280;47007;49.252;8.904;2023-02-13T04:44:41;101836.47;;;1.31;100.00
10638;BME280;47007;49.252;8.904;2023-02-13T04:45:33;101816.78;;;1.24;100.00
10638;BME280;47007;49.252;8.904;2023-02-13T04:46:15;101837.25;;;1.33;100.00
10638;BME280;47007;49.252;8.904;2023-02-13T04:47:07;101797.91;;;1.19;100.00
10638;BME280;47007;49.252;8.904;2023-02-13T04:48:00;101828.25;;;1.38;100.00
10638;BME280;47007;49.252;8.904;2023-02-13T04:48:43;101823.88;;;1.39;100.00
10638;BME280;47007;49.252;8.904;2023-02-13T04:49:30;101827.19;;;1.42;100.00
10638;BME280;47007;49.252;8.904;2023-02-13T04:50:21;101831.44;;;1.45;100.00
10638;BME280;47007;49.252;8.904;2023-02-13T04:51:06;101820.84;;;1.48;100.00
10638;BME280;47007;49.252;8.904;2023-02-13T04:51:49;101824.19;;;1.50;100.00
10638;BME280;47007;49.252;8.904;2023-02-13T04:52:31;101821.56;;;1.50;100.00
10638;BME280;47007;49.252;8.904;2023-02-13T04:53:13;101788.84;;;1.26;100.00
10638;BME280;47007;49.252;8.904;2023-02-13T04:54:06;101795.75;;;1.27;100.00
10638;BME280;47007;49.252;8.904;2023-02-13T04:54:59;101819.28;;;1.44;100.00
10638;BME280;47007;49.252;8.904;2023-02-13T04:55:44;101783.16;;;1.18;100.00
10638;BME280;47007;49.252;8.904;2023-02-13T04:56:31;101821.06;;;1.43;100.00
10638;BME280;47007;49.252;8.904;2023-02-13T04:57:12;101819.56;;;1.38;100.00
10638;BME280;47007;49.252;8.904;2023-02-13T04:58:06;101820.97;;;1.45;100.00
10638;BME280;47007;49.252;8.904;2023-02-13T04:58:56;101815.19;;;1.38;100.00
10638;BME280;47007;49.252;8.904;2023-02-13T04:59:43;101826.06;;;1.48;100.00
10638;BME280;47007;49.252;8.904;2023-02-13T05:00:28;101829.41;;;1.50;100.00
10638;BME280;47007;49.252;8.904;2023-02-13T05:01:14;101824.91;;;1.54;100.00
10638;BME280;47007;49.252;8.904;2023-02-13T05:01:59;101814.59;;;1.51;100.00
10638;BME280;47007;49.252;8.904;2023-02-13T05:02:40;101818.69;;;1.56;100.00
10638;BME280;47007;49.252;8.904;2023-02-13T05:03:26;101826.59;;;1.72;100.00
10638;BME280;47007;49.252;8.904;2023-02-13T05:04:14;101823.06;;;1.73;100.00
10638;BME280;47007;49.252;8.904;2023-02-13T05:05:00;101816.66;;;1.78;100.00
10638;BME280;47007;49.252;8.904;2023-02-13T05:05:48;101793.06;;;1.63;100.00
10638;BME280;47007;49.252;8.904;2023-02-13T05:06:30;101819.06;;;1.83;100.00
10638;BME280;47007;49.252;8.904;2023-02-13T05:07:16;101817.50;;;1.79;100.00
10638;BME280;47007;49.252;8.904;2023-02-13T05:08:18;101833.94;;;1.98;100.00
10638;BME280;47007;49.252;8.904;2023-02-13T05:09:06;101815.13;;;1.92;100.00
10638;BME280;47007;49.252;8.904;2023-02-13T05:09:47;101827.63;;;2.02;100.00
10638;BME280;47007;49.252;8.904;2023-02-13T05:10:39;101807.41;;;1.89;100.00
10638;BME280;47007;49.252;8.904;2023-02-13T05:11:25;101835.31;;;2.05;100.00
10638;BME280;47007;49.252;8.904;2023-02-13T05:12:15;101810.97;;;1.88;100.00
10638;BME280;47007;49.252;8.904;2023-02-13T05:13:03;101792.22;;;1.79;100.00
10638;BME280;47007;49.252;8.904;2023-02-13T05:13:45;101799.72;;;1.86;100.00
10638;BME280;47007;49.252;8.904;2023-02-13T05:14:33;101818.34;;;1.97;100.00
10638;BME280;47007;49.252;8.904;2023-02-13T05:15:18;101818.09;;;2.01;100.00
10638;BME280;47007;49.252;8.904;2023-02-13T05:16:03;101832.38;;;2.11;100.00
10638;BME280;47007;49.252;8.904;2023-02-13T05:17:01;101830.38;;;2.16;100.00
10638;BME280;47007;49.252;8.904;2023-02-13T05:17:44;101829.47;;;2.17;100.00